sensor_id;sensor_type;location;lat;lon;timestamp;P1;durP1;ratioP1;P2;durP2;ratioP2
38513;SDS011;24282;48.400;10.808;2022-09-03T00:02:23;2.33;;;0.90;;
38513;SDS011;24282;48.400;10.808;2022-09-03T00:05:04;2.30;;;1.15;;
38513;SDS011;24282;48.400;10.808;2022-09-03T00:10:13;3.00;;;1.35;;
38513;SDS011;24282;48.400;10.808;2022-09-03T00:12:46;2.05;;;1.35;;
38513;SDS011;24282;48.400;10.808;2022-09-03T00:15:21;2.40;;;1.20;;
38513;SDS011;24282;48.400;10.808;2022-09-03T00:23:25;5.88;;;1.35;;
38513;SDS011;24282;48.400;10.808;2022-09-03T00:31:28;1.80;;;1.13;;
38513;SDS011;24282;48.400;10.808;2022-09-03T00:36:49;2.58;;;1.17;;
38513;SDS011;24282;48.400;10.808;2022-09-03T00:39:16;2.72;;;1.30;;
38513;SDS011;24282;48.400;10.808;2022-09-03T00:53:31;3.50;;;1.20;;
38513;SDS011;24282;48.400;10.808;2022-09-03T00:57:18;1.95;;;1.23;;
38513;SDS011;24282;48.400;10.808;2022-09-03T01:02:18;3.70;;;1.40;;
38513;SDS011;24282;48.400;10.808;2022-09-03T01:13:24;1.95;;;1.27;;
38513;SDS011;24282;48.400;10.808;2022-09-03T01:37:45;2.38;;;1.67;;
38513;SDS011;24282;48.400;10.808;2022-09-03T01:40:41;2.65;;;1.25;;
38513;SDS011;24282;48.400;10.808;2022-09-03T01:43:55;2.47;;;1.60;;
38513;SDS011;24282;48.400;10.808;2022-09-03T01:46:50;3.17;;;1.30;;
38513;SDS011;24282;48.400;10.808;2022-09-03T01:49:40;2.58;;;1.35;;
38513;SDS011;24282;48.400;10.808;2022-09-03T01:57:59;2.30;;;1.60;;
38513;SDS011;24282;48.400;10.808;2022-09-03T02:00:32;1.83;;;1.20;;
38513;SDS011;24282;48.400;10.808;2022-09-03T02:03:01;2.95;;;1.30;;
38513;SDS011;24282;48.400;10.808;2022-09-03T02:05:30;2.88;;;0.93;;
38513;SDS011;24282;48.400;10.808;2022-09-03T02:08:05;2.90;;;1.67;;
38513;SDS011;24282;48.400;10.808;2022-09-03T02:10:49;4.38;;;1.50;;
38513;SDS011;24282;48.400;10.808;2022-09-03T02:13:25;2.40;;;1.50;;
38513;SDS011;24282;48.400;10.808;2022-09-03T02:15:56;1.92;;;1.38;;
38513;SDS011;24282;48.400;10.808;2022-09-03T02:18:33;2.90;;;1.60;;
38513;SDS011;24282;48.400;10.808;2022-09-03T02:21:03;3.75;;;1.70;;
38513;SDS011;24282;48.400;10.808;2022-09-03T02:23:29;2.53;;;1.20;;
38513;SDS011;24282;48.400;10.808;2022-09-03T02:25:56;2.55;;;1.42;;
38513;SDS011;24282;48.400;10.808;2022-09-03T02:28:29;4.45;;;1.33;;
38513;SDS011;24282;48.400;10.808;2022-09-03T02:30:56;1.95;;;1.27;;
38513;SDS011;24282;48.400;10.808;2022-09-03T02:33:22;2.47;;;1.30;;
38513;SDS011;24282;48.400;10.808;2022-09-03T02:35:49;3.03;;;1.58;;
38513;SDS011;24282;48.400;10.808;2022-09-03T02:38:17;3.65;;;1.73;;
38513;SDS011;24282;48.400;10.808;2022-09-03T02:40:50;2.15;;;1.48;;
38513;SDS011;24282;48.400;10.808;2022-09-03T02:43:24;3.17;;;1.58;;
38513;SDS011;24282;48.400;10.808;2022-09-03T02:46:00;2.92;;;1.73;;
38513;SDS011;24282;48.400;10.808;2022-09-03T02:48:27;3.13;;;1.30;;
38513;SDS011;24282;48.400;10.808;2022-09-03T02:50:57;2.20;;;1.50;;
38513;SDS011;24282;48.400;10.808;2022-09-03T02:53:22;2.78;;;1.65;;
38513;SDS011;24282;48.400;10.808;2022-09-03T02:55:48;1.52;;;1.23;;
38513;SDS011;24282;48.400;10.808;2022-09-03T02:58:14;2.70;;;1.50;;
38513;SDS011;24282;48.400;10.808;2022-09-03T03:00:40;2.70;;;1.48;;
38513;SDS011;24282;48.400;10.808;2022-09-03T03:03:06;2.53;;;1.48;;
38513;SDS011;24282;48.400;10.808;2022-09-03T03:05:40;2.28;;;1.60;;
38513;SDS011;24282;48.400;10.808;2022-09-03T03:08:19;2.38;;;1.42;;
38513;SDS011;24282;48.400;10.808;2022-09-03T03:10:47;2.17;;;1.15;;
38513;SDS011;24282;48.400;10.808;2022-09-03T03:13:15;3.22;;;1.50;;
38513;SDS011;24282;48.400;10.808;2022-09-03T03:15:42;4.43;;;1.40;;
38513;SDS011;24282;48.400;10.808;2022-09-03T03:18:08;3.13;;;1.70;;
38513;SDS011;24282;48.400;10.808;2022-09-03T03:20:36;2.63;;;1.40;;
38513;SDS011;24282;48.400;10.808;2022-09-03T03:23:03;2.08;;;1.50;;
38513;SDS011;24282;48.400;10.808;2022-09-03T03:25:36;2.40;;;1.50;;
38513;SDS011;24282;48.400;10.808;2022-09-03T03:28:03;2.22;;;1.50;;
38513;SDS011;24282;48.400;10.808;2022-09-03T03:30:29;3.22;;;2.00;;
38513;SDS011;24282;48.400;10.808;2022-09-03T03:32:55;2.83;;;1.63;;
38513;SDS011;24282;48.400;10.808;2022-09-03T03:35:21;2.43;;;1.53;;
38513;SDS011;24282;48.400;10.808;2022-09-03T03:37:48;6.22;;;1.80;;
38513;SDS011;24282;48.400;10.808;2022-09-03T03:40:14;2.80;;;1.50;;
38513;SDS011;24282;48.400;10.808;2022-09-03T03:42:40;3.45;;;1.70;;
38513;SDS011;24282;48.400;10.808;2022-09-03T03:45:06;3.88;;;1.50;;
38513;SDS011;24282;48.400;10.808;2022-09-03T03:47:34;2.45;;;1.40;;
38513;SDS011;24282;48.400;10.808;2022-09-03T03:50:00;2.50;;;1.60;;
38513;SDS011;24282;48.400;10.808;2022-09-03T03:52:27;3.77;;;2.13;;
38513;SDS011;24282;48.400;10.808;2022-09-03T03:54:53;4.75;;;1.73;;
38513;SDS011;24282;48.400;10.808;2022-09-03T03:57:19;2.70;;;1.75;;
38513;SDS011;24282;48.400;10.808;2022-09-03T03:59:45;2.53;;;1.35;;
38513;SDS011;24282;48.400;10.808;2022-09-03T04:02:12;1.98;;;1.08;;
38513;SDS011;24282;48.400;10.808;2022-09-03T04:04:38;3.42;;;1.73;;
38513;SDS011;24282;48.400;10.808;2022-09-03T04:07:04;1.30;;;1.15;;
38513;SDS011;24282;48.400;10.808;2022-09-03T04:09:30;2.40;;;1.43;;
38513;SDS011;24282;48.400;10.808;2022-09-03T04:11:56;2.73;;;1.60;;
38513;SDS011;24282;48.400;10.808;2022-09-03T04:14:22;8.45;;;4.60;;
38513;SDS011;24282;48.400;10.808;2022-09-03T04:16:48;8.48;;;5.30;;
38513;SDS011;24282;48.400;10.808;2022-09-03T04:19:15;9.45;;;4.63;;
38513;SDS011;24282;48.400;10.808;2022-09-03T04:21:41;11.35;;;4.68;;
38513;SDS011;24282;48.400;10.808;2022-09-03T04:24:07;7.70;;;3.83;;
38513;SDS011;24282;48.400;10.808;2022-09-03T04:26:34;5.20;;;1.77;;
38513;SDS011;24282;48.400;10.808;2022-09-03T04:29:06;2.80;;;2.07;;
38513;SDS011;24282;48.400;10.808;2022-09-03T04:31:34;3.83;;;2.47;;
38513;SDS011;24282;48.400;10.808;2022-09-03T04:34:01;2.80;;;1.92;;
38513;SDS011;24282;48.400;10.808;2022-09-03T04:36:28;4.03;;;1.42;;
38513;SDS011;24282;48.400;10.808;2022-09-03T04:38:57;2.22;;;1.70;;
38513;SDS011;24282;48.400;10.808;2022-09-03T04:41:24;3.47;;;1.55;;
38513;SDS011;24282;48.400;10.808;2022-09-03T04:43:51;4.30;;;2.13;;
38513;SDS011;24282;48.400;10.808;2022-09-03T04:46:19;2.30;;;1.80;;
38513;SDS011;24282;48.400;10.808;2022-09-03T04:48:46;4.53;;;1.90;;
38513;SDS011;24282;48.400;10.808;2022-09-03T04:51:16;2.80;;;2.08;;
38513;SDS011;24282;48.400;10.808;2022-09-03T04:53:44;2.47;;;1.80;;
38513;SDS011;24282;48.400;10.808;2022-09-03T04:56:12;2.60;;;1.50;;
38513;SDS011;24282;48.400;10.808;2022-09-03T04:58:37;2.53;;;1.58;;
38513;SDS011;24282;48.400;10.808;2022-09-03T05:01:07;4.07;;;2.13;;
38513;SDS011;24282;48.400;10.808;2022-09-03T05:03:38;4.70;;;2.60;;
38513;SDS011;24282;48.400;10.808;2022-09-03T05:06:04;3.27;;;2.27;;
38513;SDS011;24282;48.400;10.808;2022-09-03T05:08:30;3.72;;;2.40;;
38513;SDS011;24282;48.400;10.808;2022-09-03T05:10:58;4.20;;;1.80;;
38513;SDS011;24282;48.400;10.808;2022-09-03T05:13:24;4.55;;;2.15;;
38513;SDS011;24282;48.400;10.808;2022-09-03T05:15:51;3.50;;;2.17;;
38513;SDS011;24282;48.400;10.808;2022-09-03T05:18:16;3.13;;;1.50;;
38513;SDS011;24282;48.400;10.808;2022-09-03T05:20:42;3.83;;;2.80;;
38513;SDS011;24282;48.400;10.808;2022-09-03T05:23:08;7.50;;;2.80;;
38513;SDS011;24282;48.400;10.808;2022-09-03T05:25:34;3.67;;;2.22;;
38513;SDS011;24282;48.400;10.808;2022-09-03T05:28:02;3.67;;;2.38;;
38513;SDS011;24282;48.400;10.808;2022-09-03T05:30:28;2.80;;;2.10;;
38513;SDS011;24282;48.400;10.808;2022-09-03T05:32:54;2.90;;;1.90;;
38513;SDS011;24282;48.400;10.808;2022-09-03T05:35:20;2.97;;;2.08;;
38513;SDS011;24282;48.400;10.808;2022-09-03T05:37:46;3.15;;;1.98;;
38513;SDS011;24282;48.400;10.808;2022-09-03T05:40:13;2.77;;;1.50;;
38513;SDS011;24282;48.400;10.808;2022-09-03T05:42:38;2.22;;;1.65;;
38513;SDS011;24282;48.400;10.808;2022-09-03T05:45:08;2.40;;;1.55;;
38513;SDS011;24282;48.400;10.808;2022-09-03T05:47:38;3.50;;;2.20;;
38513;SDS011;24282;48.400;10.808;2022-09-03T05:50:05;3.13;;;1.80;;
38513;SDS011;24282;48.400;10.808;2022-09-03T05:52:33;4.15;;;1.83;;
38513;SDS011;24282;48.400;10.808;2022-09-03T05:54:59;3.28;;;2.33;;
38513;SDS011;24282;48.400;10.808;2022-09-03T05:57:25;4.75;;;2.03;;
38513;SDS011;24282;48.400;10.808;2022-09-03T05:59:51;4.15;;;2.30;;
38513;SDS011;24282;48.400;10.808;2022-09-03T06:02:17;4.72;;;2.28;;
38513;SDS011;24282;48.400;10.808;2022-09-03T06:04:43;7.45;;;2.97;;
38513;SDS011;24282;48.400;10.808;2022-09-03T06:07:09;7.20;;;2.30;;
38513;SDS011;24282;48.400;10.808;2022-09-03T06:09:35;4.15;;;2.30;;
38513;SDS011;24282;48.400;10.808;2022-09-03T06:12:00;4.57;;;2.53;;
38513;SDS011;24282;48.400;10.808;2022-09-03T06:14:26;4.95;;;2.67;;
38513;SDS011;24282;48.400;10.808;2022-09-03T06:16:52;6.72;;;2.40;;
38513;SDS011;24282;48.400;10.808;2022-09-03T06:19:19;6.45;;;2.97;;
38513;SDS011;24282;48.400;10.808;2022-09-03T06:21:45;4.88;;;3.05;;
38513;SDS011;24282;48.400;10.808;2022-09-03T06:24:12;5.57;;;3.25;;
38513;SDS011;24282;48.400;10.808;2022-09-03T06:26:48;8.05;;;3.55;;
38513;SDS011;24282;48.400;10.808;2022-09-03T06:29:15;5.47;;;2.88;;
38513;SDS011;24282;48.400;10.808;2022-09-03T06:31:44;7.75;;;3.53;;
38513;SDS011;24282;48.400;10.808;2022-09-03T06:34:12;4.28;;;2.65;;
38513;SDS011;24282;48.400;10.808;2022-09-03T06:36:38;5.25;;;2.88;;
38513;SDS011;24282;48.400;10.808;2022-09-03T06:39:05;3.60;;;2.70;;
38513;SDS011;24282;48.400;10.808;2022-09-03T06:41:31;4.00;;;2.88;;
38513;SDS011;24282;48.400;10.808;2022-09-03T06:44:00;5.32;;;2.47;;
38513;SDS011;24282;48.400;10.808;2022-09-03T06:46:31;5.45;;;3.35;;
38513;SDS011;24282;48.400;10.808;2022-09-03T06:49:02;3.83;;;2.85;;
38513;SDS011;24282;48.400;10.808;2022-09-03T06:51:29;3.63;;;2.33;;
38513;SDS011;24282;48.400;10.808;2022-09-03T06:54:15;5.45;;;3.00;;
38513;SDS011;24282;48.400;10.808;2022-09-03T06:56:41;3.85;;;2.95;;
38513;SDS011;24282;48.400;10.808;2022-09-03T06:59:10;5.25;;;3.25;;
38513;SDS011;24282;48.400;10.808;2022-09-03T07:01:38;5.20;;;3.47;;
38513;SDS011;24282;48.400;10.808;2022-09-03T07:04:05;14.55;;;3.42;;
38513;SDS011;24282;48.400;10.808;2022-09-03T07:06:32;4.32;;;2.83;;
38513;SDS011;24282;48.400;10.808;2022-09-03T07:09:04;5.10;;;3.88;;
38513;SDS011;24282;48.400;10.808;2022-09-03T07:11:31;4.72;;;3.72;;
38513;SDS011;24282;48.400;10.808;2022-09-03T07:13:58;6.07;;;4.18;;
38513;SDS011;24282;48.400;10.808;2022-09-03T07:16:25;6.55;;;3.22;;
38513;SDS011;24282;48.400;10.808;2022-09-03T07:19:01;8.45;;;3.70;;
38513;SDS011;24282;48.400;10.808;2022-09-03T07:21:29;4.80;;;3.20;;
38513;SDS011;24282;48.400;10.808;2022-09-03T07:23:58;8.18;;;3.60;;
38513;SDS011;24282;48.400;10.808;2022-09-03T07:26:34;7.07;;;4.07;;
38513;SDS011;24282;48.400;10.808;2022-09-03T07:29:05;6.00;;;3.97;;
38513;SDS011;24282;48.400;10.808;2022-09-03T07:31:36;4.40;;;3.65;;
38513;SDS011;24282;48.400;10.808;2022-09-03T07:34:04;5.47;;;3.53;;
38513;SDS011;24282;48.400;10.808;2022-09-03T07:36:35;6.53;;;3.80;;
38513;SDS011;24282;48.400;10.808;2022-09-03T07:39:03;6.32;;;4.25;;
38513;SDS011;24282;48.400;10.808;2022-09-03T07:41:29;4.90;;;3.40;;
38513;SDS011;24282;48.400;10.808;2022-09-03T07:43:57;7.57;;;3.83;;
38513;SDS011;24282;48.400;10.808;2022-09-03T07:46:25;6.72;;;3.75;;
38513;SDS011;24282;48.400;10.808;2022-09-03T07:48:55;6.93;;;3.58;;
38513;SDS011;24282;48.400;10.808;2022-09-03T07:51:26;6.93;;;3.20;;
38513;SDS011;24282;48.400;10.808;2022-09-03T07:53:57;6.07;;;4.07;;
38513;SDS011;24282;48.400;10.808;2022-09-03T07:56:26;4.35;;;3.50;;
38513;SDS011;24282;48.400;10.808;2022-09-03T07:58:55;7.35;;;4.47;;
38513;SDS011;24282;48.400;10.808;2022-09-03T08:01:22;3.92;;;3.13;;
38513;SDS011;24282;48.400;10.808;2022-09-03T08:03:50;5.97;;;4.00;;
38513;SDS011;24282;48.400;10.808;2022-09-03T08:06:18;6.88;;;3.97;;
38513;SDS011;24282;48.400;10.808;2022-09-03T08:08:46;7.53;;;4.05;;
38513;SDS011;24282;48.400;10.808;2022-09-03T08:11:13;6.10;;;3.95;;
38513;SDS011;24282;48.400;10.808;2022-09-03T08:13:41;5.93;;;4.35;;
38513;SDS011;24282;48.400;10.808;2022-09-03T08:16:13;5.47;;;3.97;;
38513;SDS011;24282;48.400;10.808;2022-09-03T08:18:41;5.03;;;3.85;;
38513;SDS011;24282;48.400;10.808;2022-09-03T08:21:13;6.15;;;4.22;;
38513;SDS011;24282;48.400;10.808;2022-09-03T08:23:47;6.03;;;3.63;;
38513;SDS011;24282;48.400;10.808;2022-09-03T08:26:15;5.75;;;4.38;;
38513;SDS011;24282;48.400;10.808;2022-09-03T08:28:42;6.28;;;3.55;;
38513;SDS011;24282;48.400;10.808;2022-09-03T08:31:10;6.38;;;3.60;;
38513;SDS011;24282;48.400;10.808;2022-09-03T08:33:39;5.22;;;3.90;;
38513;SDS011;24282;48.400;10.808;2022-09-03T08:38:37;5.78;;;4.70;;
38513;SDS011;24282;48.400;10.808;2022-09-03T08:41:10;5.13;;;4.30;;
38513;SDS011;24282;48.400;10.808;2022-09-03T08:46:50;4.78;;;3.95;;
38513;SDS011;24282;48.400;10.808;2022-09-03T08:52:21;4.70;;;4.13;;
38513;SDS011;24282;48.400;10.808;2022-09-03T08:55:17;6.43;;;3.78;;
38513;SDS011;24282;48.400;10.808;2022-09-03T09:06:05;5.13;;;3.58;;
38513;SDS011;24282;48.400;10.808;2022-09-03T09:08:41;5.40;;;4.18;;
38513;SDS011;24282;48.400;10.808;2022-09-03T09:22:37;5.25;;;4.03;;
38513;SDS011;24282;48.400;10.808;2022-09-03T09:25:19;5.95;;;4.55;;
38513;SDS011;24282;48.400;10.808;2022-09-03T09:30:29;4.13;;;3.40;;
38513;SDS011;24282;48.400;10.808;2022-09-03T09:32:56;5.47;;;4.07;;
38513;SDS011;24282;48.400;10.808;2022-09-03T09:35:24;4.63;;;3.38;;
38513;SDS011;24282;48.400;10.808;2022-09-03T09:37:51;4.60;;;3.65;;
38513;SDS011;24282;48.400;10.808;2022-09-03T09:40:26;4.95;;;3.45;;
38513;SDS011;24282;48.400;10.808;2022-09-03T09:43:07;4.82;;;4.10;;
38513;SDS011;24282;48.400;10.808;2022-09-03T09:45:41;4.38;;;3.25;;
38513;SDS011;24282;48.400;10.808;2022-09-03T09:48:12;4.10;;;3.47;;
38513;SDS011;24282;48.400;10.808;2022-09-03T09:51:23;4.20;;;3.15;;
38513;SDS011;24282;48.400;10.808;2022-09-03T09:54:14;4.68;;;3.15;;
38513;SDS011;24282;48.400;10.808;2022-09-03T09:56:43;3.90;;;2.95;;
38513;SDS011;24282;48.400;10.808;2022-09-03T09:59:09;4.47;;;3.20;;
38513;SDS011;24282;48.400;10.808;2022-09-03T10:01:37;4.95;;;3.53;;
38513;SDS011;24282;48.400;10.808;2022-09-03T10:04:10;5.07;;;3.10;;
38513;SDS011;24282;48.400;10.808;2022-09-03T10:06:37;4.60;;;3.20;;
38513;SDS011;24282;48.400;10.808;2022-09-03T10:09:20;5.60;;;3.00;;
38513;SDS011;24282;48.400;10.808;2022-09-03T10:14:58;4.35;;;3.30;;
38513;SDS011;24282;48.400;10.808;2022-09-03T10:23:15;3.20;;;2.05;;
38513;SDS011;24282;48.400;10.808;2022-09-03T10:26:02;4.22;;;2.42;;
38513;SDS011;24282;48.400;10.808;2022-09-03T10:28:35;3.85;;;2.47;;
38513;SDS011;24282;48.400;10.808;2022-09-03T10:39:58;4.45;;;2.60;;
38513;SDS011;24282;48.400;10.808;2022-09-03T10:51:05;3.70;;;3.03;;
38513;SDS011;24282;48.400;10.808;2022-09-03T11:02:16;3.97;;;2.83;;
38513;SDS011;24282;48.400;10.808;2022-09-03T11:05:00;3.08;;;2.38;;
38513;SDS011;24282;48.400;10.808;2022-09-03T11:07:36;3.80;;;2.42;;
38513;SDS011;24282;48.400;10.808;2022-09-03T11:13:13;4.10;;;1.98;;
38513;SDS011;24282;48.400;10.808;2022-09-03T11:21:03;4.47;;;2.92;;
38513;SDS011;24282;48.400;10.808;2022-09-03T11:23:35;5.28;;;2.45;;
38513;SDS011;24282;48.400;10.808;2022-09-03T11:26:09;3.72;;;2.60;;
38513;SDS011;24282;48.400;10.808;2022-09-03T11:28:40;5.00;;;2.97;;
38513;SDS011;24282;48.400;10.808;2022-09-03T11:34:11;2.85;;;2.10;;
38513;SDS011;24282;48.400;10.808;2022-09-03T11:36:40;4.05;;;1.95;;
38513;SDS011;24282;48.400;10.808;2022-09-03T11:39:19;5.22;;;2.30;;
38513;SDS011;24282;48.400;10.808;2022-09-03T11:42:00;2.67;;;1.92;;
38513;SDS011;24282;48.400;10.808;2022-09-03T11:44:49;3.45;;;1.80;;
38513;SDS011;24282;48.400;10.808;2022-09-03T11:49:45;3.58;;;2.03;;
38513;SDS011;24282;48.400;10.808;2022-09-03T11:52:24;2.88;;;1.77;;
38513;SDS011;24282;48.400;10.808;2022-09-03T11:54:56;2.03;;;1.63;;
38513;SDS011;24282;48.400;10.808;2022-09-03T11:57:24;2.33;;;1.45;;
38513;SDS011;24282;48.400;10.808;2022-09-03T12:00:05;4.97;;;1.88;;
38513;SDS011;24282;48.400;10.808;2022-09-03T12:02:46;1.67;;;1.35;;
38513;SDS011;24282;48.400;10.808;2022-09-03T12:19:06;2.45;;;1.65;;
38513;SDS011;24282;48.400;10.808;2022-09-03T12:24:20;3.28;;;1.27;;
38513;SDS011;24282;48.400;10.808;2022-09-03T12:26:47;2.53;;;1.48;;
38513;SDS011;24282;48.400;10.808;2022-09-03T12:29:23;2.47;;;1.40;;
38513;SDS011;24282;48.400;10.808;2022-09-03T12:31:51;2.13;;;1.20;;
38513;SDS011;24282;48.400;10.808;2022-09-03T12:34:18;2.47;;;1.20;;
38513;SDS011;24282;48.400;10.808;2022-09-03T12:36:46;1.25;;;1.00;;
38513;SDS011;24282;48.400;10.808;2022-09-03T12:39:21;1.38;;;0.95;;
38513;SDS011;24282;48.400;10.808;2022-09-03T12:44:29;1.67;;;1.13;;
38513;SDS011;24282;48.400;10.808;2022-09-03T12:47:09;1.20;;;0.90;;
38513;SDS011;24282;48.400;10.808;2022-09-03T12:49:38;1.00;;;0.80;;
38513;SDS011;24282;48.400;10.808;2022-09-03T12:52:07;2.85;;;0.90;;
38513;SDS011;24282;48.400;10.808;2022-09-03T12:54:46;1.25;;;0.85;;
38513;SDS011;24282;48.400;10.808;2022-09-03T12:57:37;3.15;;;1.35;;
38513;SDS011;24282;48.400;10.808;2022-09-03T13:00:06;1.85;;;1.30;;
38513;SDS011;24282;48.400;10.808;2022-09-03T13:05:25;1.35;;;0.90;;
38513;SDS011;24282;48.400;10.808;2022-09-03T13:08:05;1.60;;;1.10;;
38513;SDS011;24282;48.400;10.808;2022-09-03T13:10:37;2.00;;;1.30;;
38513;SDS011;24282;48.400;10.808;2022-09-03T13:13:21;1.55;;;1.10;;
38513;SDS011;24282;48.400;10.808;2022-09-03T13:15:59;2.55;;;0.98;;
38513;SDS011;24282;48.400;10.808;2022-09-03T13:24:36;1.85;;;1.10;;
38513;SDS011;24282;48.400;10.808;2022-09-03T13:37:47;3.38;;;0.60;;
38513;SDS011;24282;48.400;10.808;2022-09-03T13:40:34;1.38;;;0.70;;
38513;SDS011;24282;48.400;10.808;2022-09-03T13:43:21;1.95;;;0.90;;
38513;SDS011;24282;48.400;10.808;2022-09-03T13:46:07;2.17;;;1.00;;
38513;SDS011;24282;48.400;10.808;2022-09-03T13:48:40;1.47;;;1.00;;
38513;SDS011;24282;48.400;10.808;2022-09-03T13:51:47;1.85;;;0.80;;
38513;SDS011;24282;48.400;10.808;2022-09-03T14:13:10;4.75;;;1.20;;
38513;SDS011;24282;48.400;10.808;2022-09-03T14:15:35;3.40;;;1.23;;
38513;SDS011;24282;48.400;10.808;2022-09-03T14:21:13;1.10;;;0.88;;
38513;SDS011;24282;48.400;10.808;2022-09-03T14:23:50;3.58;;;1.23;;
38513;SDS011;24282;48.400;10.808;2022-09-03T14:26:29;2.92;;;1.33;;
38513;SDS011;24282;48.400;10.808;2022-09-03T14:29:13;1.25;;;0.80;;
38513;SDS011;24282;48.400;10.808;2022-09-03T14:31:48;1.38;;;1.00;;
38513;SDS011;24282;48.400;10.808;2022-09-03T14:34:37;1.95;;;1.10;;
38513;SDS011;24282;48.400;10.808;2022-09-03T14:42:27;3.35;;;1.42;;
38513;SDS011;24282;48.400;10.808;2022-09-03T15:10:09;4.00;;;2.15;;
38513;SDS011;24282;48.400;10.808;2022-09-03T15:12:49;3.33;;;1.63;;
38513;SDS011;24282;48.400;10.808;2022-09-03T15:15:29;4.32;;;1.83;;
38513;SDS011;24282;48.400;10.808;2022-09-03T15:18:19;4.20;;;2.10;;
38513;SDS011;24282;48.400;10.808;2022-09-03T15:20:57;5.78;;;1.77;;
38513;SDS011;24282;48.400;10.808;2022-09-03T15:29:09;2.97;;;1.58;;
38513;SDS011;24282;48.400;10.808;2022-09-03T15:35:07;3.83;;;1.58;;
38513;SDS011;24282;48.400;10.808;2022-09-03T15:37:51;3.40;;;1.80;;
38513;SDS011;24282;48.400;10.808;2022-09-03T15:40:40;3.63;;;2.10;;
38513;SDS011;24282;48.400;10.808;2022-09-03T15:43:18;2.75;;;2.05;;
38513;SDS011;24282;48.400;10.808;2022-09-03T15:45:55;3.83;;;1.75;;
38513;SDS011;24282;48.400;10.808;2022-09-03T15:51:15;5.13;;;3.03;;
38513;SDS011;24282;48.400;10.808;2022-09-03T15:53:48;3.75;;;1.92;;
38513;SDS011;24282;48.400;10.808;2022-09-03T15:56:35;1.98;;;1.38;;
38513;SDS011;24282;48.400;10.808;2022-09-03T15:59:22;4.72;;;1.77;;
38513;SDS011;24282;48.400;10.808;2022-09-03T16:04:58;2.88;;;1.60;;
38513;SDS011;24282;48.400;10.808;2022-09-03T16:15:35;2.75;;;1.52;;
38513;SDS011;24282;48.400;10.808;2022-09-03T16:26:41;2.10;;;1.10;;
38513;SDS011;24282;48.400;10.808;2022-09-03T16:29:28;2.08;;;1.50;;
38513;SDS011;24282;48.400;10.808;2022-09-03T16:40:20;3.10;;;1.60;;
38513;SDS011;24282;48.400;10.808;2022-09-03T16:46:04;2.72;;;1.70;;
38513;SDS011;24282;48.400;10.808;2022-09-03T16:53:55;2.28;;;1.48;;
38513;SDS011;24282;48.400;10.808;2022-09-03T17:05:23;3.45;;;1.90;;
38513;SDS011;24282;48.400;10.808;2022-09-03T17:24:28;2.10;;;1.60;;
38513;SDS011;24282;48.400;10.808;2022-09-03T17:27:33;1.83;;;1.30;;
38513;SDS011;24282;48.400;10.808;2022-09-03T17:48:43;4.18;;;2.25;;
38513;SDS011;24282;48.400;10.808;2022-09-03T17:56:55;4.20;;;2.15;;
38513;SDS011;24282;48.400;10.808;2022-09-03T18:02:00;4.60;;;2.10;;
38513;SDS011;24282;48.400;10.808;2022-09-03T18:13:53;4.97;;;2.67;;
38513;SDS011;24282;48.400;10.808;2022-09-03T18:16:32;3.90;;;2.13;;
38513;SDS011;24282;48.400;10.808;2022-09-03T18:19:02;4.63;;;1.58;;
38513;SDS011;24282;48.400;10.808;2022-09-03T18:21:42;3.55;;;1.63;;
38513;SDS011;24282;48.400;10.808;2022-09-03T18:27:16;3.35;;;1.88;;
38513;SDS011;24282;48.400;10.808;2022-09-03T18:30:10;4.22;;;2.40;;
38513;SDS011;24282;48.400;10.808;2022-09-03T18:32:57;7.10;;;3.35;;
38513;SDS011;24282;48.400;10.808;2022-09-03T18:35:43;5.97;;;3.28;;
38513;SDS011;24282;48.400;10.808;2022-09-03T18:38:30;3.42;;;2.50;;
38513;SDS011;24282;48.400;10.808;2022-09-03T18:50:44;2.50;;;1.70;;
38513;SDS011;24282;48.400;10.808;2022-09-03T18:56:50;3.03;;;2.00;;
38513;SDS011;24282;48.400;10.808;2022-09-03T19:02:59;3.58;;;2.60;;
38513;SDS011;24282;48.400;10.808;2022-09-03T19:05:56;3.63;;;2.60;;
38513;SDS011;24282;48.400;10.808;2022-09-03T19:09:06;3.03;;;2.08;;
38513;SDS011;24282;48.400;10.808;2022-09-03T19:15:05;3.38;;;1.92;;
38513;SDS011;24282;48.400;10.808;2022-09-03T19:18:36;2.33;;;1.60;;
38513;SDS011;24282;48.400;10.808;2022-09-03T19:21:36;2.70;;;1.63;;
38513;SDS011;24282;48.400;10.808;2022-09-03T19:24:28;3.30;;;1.75;;
38513;SDS011;24282;48.400;10.808;2022-09-03T19:30:32;4.50;;;1.60;;
38513;SDS011;24282;48.400;10.808;2022-09-03T19:36:49;3.47;;;1.85;;
38513;SDS011;24282;48.400;10.808;2022-09-03T19:46:02;3.65;;;2.00;;
38513;SDS011;24282;48.400;10.808;2022-09-03T19:54:44;2.90;;;1.83;;
38513;SDS011;24282;48.400;10.808;2022-09-03T19:57:32;3.63;;;1.80;;
38513;SDS011;24282;48.400;10.808;2022-09-03T20:00:17;2.15;;;1.65;;
38513;SDS011;24282;48.400;10.808;2022-09-03T20:03:01;2.58;;;1.50;;
38513;SDS011;24282;48.400;10.808;2022-09-03T20:05:51;4.20;;;1.85;;
38513;SDS011;24282;48.400;10.808;2022-09-03T20:08:37;1.70;;;1.17;;
38513;SDS011;24282;48.400;10.808;2022-09-03T20:11:22;3.67;;;1.65;;
38513;SDS011;24282;48.400;10.808;2022-09-03T20:13:51;2.00;;;1.40;;
38513;SDS011;24282;48.400;10.808;2022-09-03T20:25:00;2.13;;;1.58;;
38513;SDS011;24282;48.400;10.808;2022-09-03T20:27:39;2.85;;;1.70;;
38513;SDS011;24282;48.400;10.808;2022-09-03T20:30:31;2.40;;;1.30;;
38513;SDS011;24282;48.400;10.808;2022-09-03T20:55:19;4.40;;;2.05;;
38513;SDS011;24282;48.400;10.808;2022-09-03T20:58:08;3.40;;;2.25;;
38513;SDS011;24282;48.400;10.808;2022-09-03T21:00:59;3.35;;;2.15;;
38513;SDS011;24282;48.400;10.808;2022-09-03T21:03:42;3.47;;;2.47;;
38513;SDS011;24282;48.400;10.808;2022-09-03T21:09:24;7.93;;;2.28;;
38513;SDS011;24282;48.400;10.808;2022-09-03T21:15:19;2.20;;;1.67;;
38513;SDS011;24282;48.400;10.808;2022-09-03T21:23:18;2.15;;;1.35;;
38513;SDS011;24282;48.400;10.808;2022-09-03T21:26:06;2.05;;;1.08;;
38513;SDS011;24282;48.400;10.808;2022-09-03T21:31:37;3.60;;;1.40;;
38513;SDS011;24282;48.400;10.808;2022-09-03T21:34:19;1.60;;;1.17;;
38513;SDS011;24282;48.400;10.808;2022-09-03T21:36:53;1.50;;;1.13;;
38513;SDS011;24282;48.400;10.808;2022-09-03T21:39:25;4.50;;;1.30;;
38513;SDS011;24282;48.400;10.808;2022-09-03T21:42:04;3.13;;;1.35;;
38513;SDS011;24282;48.400;10.808;2022-09-03T21:47:19;2.67;;;1.30;;
38513;SDS011;24282;48.400;10.808;2022-09-03T22:04:13;4.28;;;2.30;;
38513;SDS011;24282;48.400;10.808;2022-09-03T22:09:18;2.55;;;1.83;;
38513;SDS011;24282;48.400;10.808;2022-09-03T22:12:04;3.55;;;1.90;;
38513;SDS011;24282;48.400;10.808;2022-09-03T22:14:47;4.95;;;1.85;;
38513;SDS011;24282;48.400;10.808;2022-09-03T22:17:17;4.05;;;1.90;;
38513;SDS011;24282;48.400;10.808;2022-09-03T22:20:08;2.47;;;1.88;;
38513;SDS011;24282;48.400;10.808;2022-09-03T22:28:04;2.83;;;2.00;;
38513;SDS011;24282;48.400;10.808;2022-09-03T22:36:19;3.63;;;2.08;;
38513;SDS011;24282;48.400;10.808;2022-09-03T22:39:10;3.75;;;1.95;;
38513;SDS011;24282;48.400;10.808;2022-09-03T22:50:17;4.30;;;1.80;;
38513;SDS011;24282;48.400;10.808;2022-09-03T22:53:06;5.55;;;2.05;;
38513;SDS011;24282;48.400;10.808;2022-09-03T22:56:08;3.67;;;1.88;;
38513;SDS011;24282;48.400;10.808;2022-09-03T23:01:28;4.55;;;1.80;;
38513;SDS011;24282;48.400;10.808;2022-09-03T23:04:21;3.13;;;1.65;;
38513;SDS011;24282;48.400;10.808;2022-09-03T23:06:51;4.82;;;1.58;;
38513;SDS011;24282;48.400;10.808;2022-09-03T23:09:24;2.72;;;1.50;;
38513;SDS011;24282;48.400;10.808;2022-09-03T23:11:55;6.80;;;1.80;;